ADDS METAR Data INFO
IDs: Format: Raw Decoded Include TAF

Data at: 1806 UTC 18 Feb 2018

KPHF 181754Z 09010KT 10SM SCT035 10/02 A3041 RMK AO2 SLP297 T01000022 10106 20028 50009
KPHF 181654Z 05006KT 10SM CLR 11/03 A3041 RMK AO2 SLP298 T01060033
KPHF 181554Z 04010G18KT 10SM CLR 09/02 A3040 RMK AO2 SLP293 T00940022
KPHF 181454Z 04008G15KT 10SM CLR 09/03 A3038 RMK AO2 SLP287 T00890028 51049
KPHF 181354Z 02004KT 10SM CLR 07/03 A3034 RMK AO2 SLP275 T00720033
KPHF 181254Z 00000KT 6SM BR SCT005 05/03 A3028 RMK AO2 SLP254 T00500033
KPHF 181154Z 00000KT 8SM BKN005 03/02 A3023 RMK AO2 SLP237 70012 T00280017 10044 20028 51026
KPHF 181152Z 00000KT 8SM BKN005 03/02 A3023 RMK AO2
KPHF 181144Z 00000KT 9SM SCT006 03/02 A3023 RMK AO2 T00280017
KPHF 181054Z 35004KT 10SM CLR 04/03 A3019 RMK AO2 SLP224 T00390028
KPHF 180954Z AUTO 28007KT 10SM CLR 04/03 A3015 RMK AO2 SLP211 T00440033
KPHF 180854Z AUTO 25007KT 9SM FEW006 04/03 A3010 RMK AO2 SLP194 T00440033 51014
KPHF 180823Z AUTO 26008KT 10SM SCT006 04/03 A3009 RMK AO2 T00440033
KPHF 180754Z AUTO 25007KT 10SM BKN006 04/03 A3009 RMK AO2 SLP190 T00440028
KPHF 180750Z AUTO 26007KT 10SM BKN006 04/03 A3009 RMK AO2
KPHF 180654Z AUTO 25008KT 10SM FEW006 04/03 A3006 RMK AO2 SLP179 T00440028
KPHF 180639Z AUTO 24008KT 10SM SCT006 SCT085 04/03 A3006 RMK AO2 T00440028
KPHF 180606Z AUTO 24006KT 9SM OVC005 04/03 A3006 RMK AO2 T00440033
KPHF 180554Z AUTO 26003KT 9SM OVC004 04/03 A3005 RMK AO2 SLP176 60001 T00390028 10039 20033 58012
KPHF 180454Z AUTO 31005KT 10SM OVC004 04/03 A3007 RMK AO2 RAE20 SLP183 P0000 T00390028 400890028
KPHF 180432Z AUTO 33005KT 10SM OVC004 04/03 A3008 RMK AO2 RAE20 P0000 T00390028
KPHF 180354Z AUTO 31004KT 10SM -RA OVC005 04/03 A3007 RMK AO2 RAB46 SLP182 P0000 T00390028
KPHF 180254Z 32004KT 7SM OVC005 03/03 A3009 RMK AO2 SLP188 60001 T00330028 56018
KPHF 180154Z 01003KT 10SM BKN006 OVC018 03/03 A3009 RMK AO2 RAB35E46 SLP189 P0000 T00330028
KPHF 180107Z 03003KT 10SM BKN006 OVC020 03/03 A3011 RMK AO2 T00330028
KPHF 180054Z AUTO VRB05KT 10SM SCT006 OVC020 03/03 A3012 RMK AO2 RAE01B12E45 SLP198 P0001 T00330028
KPHF 180045Z AUTO 33008KT 10SM BKN006 OVC020 03/02 A3013 RMK AO2 RAE01B12E45 P0001 T00330022
KPHF 180031Z AUTO VRB04KT 6SM -RA BR SCT007 OVC020 03/02 A3012 RMK AO2 RAE01B12 P0000 T00330022
KPHF 180001Z 02004KT 7SM BKN007 OVC013 04/03 A3013 RMK AO2 RAE01 CIG 004V010 PRESFR P0000 T00390028
KPHF 172354Z 03005KT 2 1/2SM -RA BR BKN007 OVC013 04/03 A3014 RMK AO2 RAE39B51 CIG 005V009 SLP206 P0001 60011 T00390028 10061 20039 58012
KPHF 172341Z 35005KT 2 1/2SM BR BKN007 OVC014 04/03 A3016 RMK AO2 RAE39 CIG 004V009 P0001 T00390028
KPHF 172327Z 33006KT 2 1/2SM -RA BR SCT006 OVC012 04/03 A3017 RMK AO2 P0001 T00390033
KPHF 172315Z 00000KT 2 1/2SM -RA BR BKN009 OVC012 04/03 A3015 RMK AO2 P0000 T00390028
KPHF 172308Z 31009KT 2 1/2SM -RA BR SCT007 OVC012 04/03 A3020 RMK AO2 PRESRR P0000 T00390028
KPHF 172302Z 35003KT 3SM -RA BR BKN007 OVC012 04/03 A3017 RMK AO2 P0000 T00390028
KPHF 172254Z 34005KT 2 1/2SM -RA BR BKN007 OVC013 04/03 A3017 RMK AO2 SLP215 P0003 T00390028
KPHF 172249Z 36003KT 2 1/2SM -RA BR BKN006 OVC013 04/03 A3016 RMK AO2 P0003
KPHF 172236Z 02003KT 3SM -RA BR OVC006 04/03 A3015 RMK AO2 CIG 004V009 P0002 T00390028
KPHF 172212Z 00000KT 1 3/4SM -RA BR BKN007 OVC012 04/03 A3015 RMK AO2 P0001 T00390028
KPHF 172157Z 35005KT 3SM -RA BR BKN007 OVC012 04/03 A3017 RMK AO2 P0000 T00390028
KPHF 172154Z 34004KT 2 1/2SM -RA BR SCT007 OVC012 04/03 A3017 RMK AO2 SLP218 P0007 T00390028
KPHF 172147Z 07003KT 1 1/4SM RA BR FEW007 OVC012 04/03 A3016 RMK AO2 P0007 T00390028
KPHF 172132Z 36004KT 1 1/4SM RA BR OVC014 04/03 A3017 RMK AO2 P0002 T00390028
KPHF 172115Z 05005KT 1 3/4SM -RA BR OVC016 04/02 A3016 RMK AO2 P0000 T00440022
KPHF 172106Z 05006KT 2SM -RA BKN017 OVC024 04/02 A3016 RMK AO2 P0000 T00440017
KPHF 172054Z 06007KT 4SM -RA SCT019 OVC024 05/02 A3017 RMK AO2 RAB46 SLP216 P0000 60000 T00500017 56036
KPHF 172042Z 08007KT 10SM BKN025 OVC031 06/01 A3016 RMK AO2 T00560011
KPHF 171954Z 08006KT 10SM OVC042 06/00 A3018 RMK AO2 SLP221 T00610000
KPHF 171854Z 10007KT 10SM OVC047 06/M01 A3023 RMK AO2 SLP236 T00611006
KPHF 171754Z 10010KT 10SM OVC055 06/M01 A3028 RMK AO2 SLP252 T00611006 10072 20028 58031
KPHF 171739Z 11011KT 10SM SCT029 OVC060 07/M01 A3028 RMK AO2 T00671006
KPHF 171720Z 08012KT 10SM BKN028 OVC060 07/01 A3032 RMK AO2 T00670006
KPHF 171654Z 09014KT 10SM SCT026 OVC065 07/01 A3031 RMK AO2 SLP264 T00670011
KPHF 171554Z 09008KT 10SM FEW027 BKN075 06/00 A3037 RMK AO2 SLP284 T00560000
KPHF 171454Z 09013KT 10SM CLR 06/M01 A3037 RMK AO2 SLP283 T00561006 51005
KPHF 171354Z 08016G20KT 10SM CLR 05/M01 A3037 RMK AO2 SLP282 T00501006
KPHF 171254Z 05007KT 10SM CLR 04/M01 A3038 RMK AO2 SLP285 T00391006
KPHF 171154Z 03007KT 10SM CLR 03/M02 A3035 RMK AO2 SLP279 70007 T00281017 10072 20028 51023
KPHF 171054Z 03005KT 10SM CLR 03/M02 A3034 RMK AO2 SLP273 T00281017
KPHF 170954Z AUTO 01004KT 10SM CLR 03/M02 A3031 RMK AO2 SLP263 T00331017
KPHF 170854Z AUTO 01004KT 10SM CLR 03/M01 A3028 RMK AO2 SLP254 T00331011 51019
KPHF 170754Z AUTO 36006KT 10SM CLR 04/M01 A3027 RMK AO2 SLP249 T00441006
KPHF 170654Z AUTO 36005KT 10SM CLR 06/00 A3026 RMK AO2 SLP244 T00560000